Buoy 56564

sailwx.info

Track history (hours):
 
Tides and Currents Weather Stations Pressure Air Temp Water Temp Dewpoint Dewpoint Depression Visibility Wind Speed Wind Dir Waves Ship Positions

Drifting buoy 56564

Last reported at 2017-Jan-20 17:40 UTC. Time now 2017-Jan-20 22:09 UTC.
Position S 24°45' E 077°14'.

Barometer 1019.4 mb
Water temperature 25.6 ° C

Date/timePositionNaut miles runAvg speedWind from/ knotsBaromVisibWave heightAir tempDewpointWater temp
2017-Jan-20 17:40S 24°45' E 077°14'1 0.5 1019.4 25.6
2017-Jan-20 16:40S 24°45' E 077°15'1 0.3 1019.3 25.6
2017-Jan-20 14:40S 24°46' E 077°15'1 1.2 1018.8 25.6
2017-Jan-20 13:40S 24°45' E 077°16'1 0.3 1018.2 25.6
2017-Jan-20 11:40S 24°45' E 077°17'1 0.5 1017.5 25.7
2017-Jan-20 10:30S 24°44' E 077°17'2 1.4 1017.7 25.7
2017-Jan-20 08:40S 24°43' E 077°19'1 0.1 1018.6 25.7
2017-Jan-20 04:40S 24°43' E 077°20'1 0.5 1020.0 25.6
2017-Jan-20 02:30S 24°43' E 077°21'2 0.9 1019.9 25.6
2017-Jan-20 00:40S 24°44' E 077°22'1 0.1 1019.2 25.6
2017-Jan-19 17:40S 24°44' E 077°23'1 0.3 1020.2 25.6
2017-Jan-19 15:40S 24°44' E 077°23'1 0.7 1020.0 25.6
2017-Jan-19 14:30S 24°44' E 077°22'1 0.7 1019.9 25.6
2017-Jan-19 13:40S 24°44' E 077°23'1 0.7 1019.5 25.7
2017-Jan-19 12:30S 24°43' E 077°22'1 1.1 1019.2 25.7
2017-Jan-19 11:30S 24°43' E 077°23'0 0.0 1019.1 25.7
2017-Jan-19 10:40S 24°43' E 077°23'4 3.6 1019.3 25.7
2017-Jan-19 09:30S 24°41' E 077°28'0 0.0 1019.6 25.7
2017-Jan-19 05:40S 24°41' E 077°28'0 0.0 1021.3 25.6
2017-Jan-19 04:40S 24°41' E 077°28'1 0.5 1021.6 25.6
2017-Jan-19 02:40S 24°41' E 077°29'1 0.5 1022.0 25.5
2017-Jan-19 01:40S 24°41' E 077°29'0 0.0 1021.9 25.5
2017-Jan-19 00:30S 24°41' E 077°29'1 0.5 1021.8 25.5
2017-Jan-18 23:30S 24°41' E 077°30'1 0.7 1021.2 25.6
2017-Jan-18 22:40S 24°42' E 077°30'2 1.1 1021.1 25.6
2017-Jan-18 20:40S 24°41' E 077°32'0 0.0 1021.4 25.6
2017-Jan-18 17:40S 24°41' E 077°32'0 0.0 1022.5 25.7
2017-Jan-18 16:30S 24°41' E 077°32'1 0.3 1022.5 25.7
2017-Jan-18 14:40S 24°41' E 077°33'1 0.3 1021.7 25.7
2017-Jan-18 12:40S 24°41' E 077°34'1 0.6 1020.7 25.7
2017-Jan-18 11:40S 24°41' E 077°34'1 0.5 1020.5 25.7
2017-Jan-18 10:30S 24°41' E 077°34'3 3.6 1020.5 25.7
2017-Jan-18 09:40S 24°40' E 077°37'1 0.1 1020.8 25.7
2017-Jan-18 03:30S 24°40' E 077°37'2 1.9 1022.3 25.6
2017-Jan-18 02:40S 24°39' E 077°38'0 0.0 1022.4 25.6
2017-Jan-18 01:40S 24°39' E 077°38'1 0.5 1022.3 25.6
2017-Jan-18 00:30S 24°40' E 077°38'1 0.4 1021.9 25.6
2017-Jan-17 22:30S 24°40' E 077°39'3 1.1 1021.0 25.7
2017-Jan-17 19:30S 24°40' E 077°43'1 0.2 1021.7 25.7
2017-Jan-17 16:40S 24°40' E 077°43'1 0.6 1022.5 25.7
2017-Jan-17 14:30S 24°41' E 077°44'1 0.8 1021.9 25.7
2017-Jan-17 13:30S 24°40' E 077°44'1 0.7 1021.3 25.7
2017-Jan-17 12:40S 24°40' E 077°45'0 0.0 1020.5 25.7
2017-Jan-17 11:40S 24°40' E 077°45'5 2.1 1020.2 25.7
2017-Jan-17 09:30S 24°41' E 077°50'0 0.0 1020.6 25.7
2017-Jan-17 04:30S 24°41' E 077°50'1 0.8 1021.9 25.6
2017-Jan-17 03:30S 24°42' E 077°50'0 0.0 1021.7 25.6
2017-Jan-17 02:40S 24°42' E 077°50'0 0.0 1021.6 25.6
2017-Jan-17 01:30S 24°42' E 077°50'1 0.8 1021.5 25.6
2017-Jan-17 00:30S 24°43' E 077°51'2 1.1 1020.9 25.5
2017-Jan-16 22:40S 24°41' E 077°53'4 0.7 1020.0 25.6
2017-Jan-16 16:40S 24°40' E 077°57'2 2.2 1021.9 25.6
2017-Jan-16 15:40S 24°40' E 077°59'0 0.0 1021.6 25.6
2017-Jan-16 14:30S 24°40' E 077°59'2 0.9 1021.2 25.6
2017-Jan-16 12:40S 24°40' E 078°01'3 2.4 1020.2 25.7
2017-Jan-16 11:30S 24°39' E 078°04'7 0.7 1020.0 25.7
2017-Jan-16 01:40S 24°39' E 078°11'1 0.8 1023.0 25.2
2017-Jan-16 00:40S 24°40' E 078°12'1 0.5 1022.3 25.2
2017-Jan-15 23:30S 24°39' E 078°12'1 0.6 1021.8 25.2
2017-Jan-15 21:40S 24°39' E 078°13'4 0.7 1021.9 25.3
2017-Jan-15 16:40S 24°37' E 078°16'2 0.7 1023.3 25.3
2017-Jan-15 13:40S 24°35' E 078°18'1 0.9 1021.7 25.3
2017-Jan-15 12:30S 24°35' E 078°19'6 0.8 1020.7 25.4
2017-Jan-15 04:30S 24°34' E 078°26'1 1.0 1021.8 25.4
2017-Jan-15 03:40S 24°34' E 078°26'0 0.0 1021.9 25.3
2017-Jan-15 02:30S 24°34' E 078°26'0 0.0 1021.8 25.2
2017-Jan-15 01:40S 24°34' E 078°26'1 0.5 1021.6 25.2
2017-Jan-15 00:30S 24°34' E 078°27'1 0.4 1021.1 25.2
2017-Jan-14 21:40S 24°34' E 078°28'0 0.0 1019.8 25.3
2017-Jan-14 17:40S 24°34' E 078°28'0 0.0 1021.0 25.4
2017-Jan-14 16:40S 24°34' E 078°28'0 0.0 1020.7 25.4
2017-Jan-14 15:40S 24°34' E 078°28'1 1.3 1020.5 25.5
2017-Jan-14 14:40S 24°32' E 078°29'1 0.5 1019.8 25.5
2017-Jan-14 13:40S 24°32' E 078°28'2 1.6 1019.1 25.5
2017-Jan-14 12:40S 24°31' E 078°29'0 0.0 1018.2 25.6
2017-Jan-14 11:30S 24°31' E 078°29'1 1.0 1017.5 25.6
2017-Jan-14 10:40S 24°31' E 078°30'5 0.9 1017.4 25.6
2017-Jan-14 05:30S 24°28' E 078°34'1 0.3 1017.9 25.2
2017-Jan-14 01:40S 24°28' E 078°35'1 0.8 1017.2 25.0
2017-Jan-14 00:40S 24°27' E 078°36'2 0.5 1016.5 25.1
2017-Jan-13 21:40S 24°26' E 078°37'1 0.2 1014.7 25.2
2017-Jan-13 16:40S 24°25' E 078°38'1 0.6 1015.9 25.2
2017-Jan-13 14:40S 24°24' E 078°38'1 0.7 1015.0 25.3
2017-Jan-13 13:30S 24°23' E 078°38'1 1.4 1014.5 25.4
2017-Jan-13 12:40S 24°22' E 078°38'1 0.3 1013.8 25.5
2017-Jan-13 10:30S 24°22' E 078°38'6 0.7 1013.3 25.6
2017-Jan-13 01:40S 24°17' E 078°43'1 0.6 1015.6 25.2
2017-Jan-13 00:40S 24°17' E 078°43'3 1.1 1015.2 25.2
2017-Jan-12 21:30S 24°16' E 078°47'3 0.5 1014.5 25.2
2017-Jan-12 15:40S 24°16' E 078°50'0 0.0 1016.6 25.2
2017-Jan-12 14:40S 24°16' E 078°50'2 1.1 1016.2 25.3
2017-Jan-12 12:40S 24°16' E 078°52'0 0.0 1015.2 25.4
2017-Jan-12 11:40S 24°16' E 078°52'1 0.8 1014.7 25.4
2017-Jan-12 10:40S 24°15' E 078°53'1 0.5 1015.0 25.5
2017-Jan-12 08:40S 24°15' E 078°54'0 0.0 1016.1 25.4
2017-Jan-12 04:40S 24°15' E 078°54'1 0.5 1017.9 25.1
2017-Jan-12 03:40S 24°15' E 078°53'2 0.7 1018.2 25.1
2017-Jan-12 01:30S 24°14' E 078°55'1 1.0 1018.0 25.0
2017-Jan-12 00:40S 24°13' E 078°55'0 0.0 1017.7 25.1
2017-Jan-11 23:30S 24°13' E 078°55'2 1.1 1017.1 25.1
2017-Jan-11 21:40S 24°12' E 078°57'2 1.8 1017.1 25.1
2017-Jan-11 20:30S 24°10' E 078°58'1 0.3 1017.4 25.1
2017-Jan-11 16:40S 24°11' E 078°59'1 0.8 1019.0 25.1
2017-Jan-11 15:40S 24°10' E 079°00'1 0.5 1018.7 25.2
2017-Jan-11 13:40S 24°10' E 079°01'1 0.8 1017.7 25.2
2017-Jan-11 12:40S 24°10' E 079°02'2 1.6 1017.1 25.2
2017-Jan-11 11:40S 24°10' E 079°04'1 0.6 1016.9 25.2
2017-Jan-11 10:40S 24°10' E 079°04'3 2.7 1016.9 25.2
2017-Jan-11 09:40S 24°10' E 079°07'1 0.1 1017.2 25.2
2017-Jan-11 01:30S 24°10' E 079°07'1 1.0 1018.2 25.1
2017-Jan-11 00:40S 24°09' E 079°08'1 0.3 1017.8 25.1
2017-Jan-10 22:40S 24°08' E 079°08'   1017.2 25.1
Track history (hours):
 
Tides and Currents Weather Stations Pressure Air Temp Water Temp Dewpoint Dewpoint Depression Visibility Wind Speed Wind Dir Waves Ship Positions

Drifting buoy 56564

Last reported at 2017-Jan-20 17:40 UTC. Time now 2017-Jan-20 22:09 UTC.
Position S 24°45' E 077°14'.

Barometer 1019.4 mb
Water temperature 25.6 ° C

Date/timePositionNaut miles runAvg speedWind from/ knotsBaromVisibWave heightAir tempDewpointWater temp
2017-Jan-20 17:40S 24°45' E 077°14'1 0.5 1019.4 25.6
2017-Jan-20 16:40S 24°45' E 077°15'1 0.3 1019.3 25.6
2017-Jan-20 14:40S 24°46' E 077°15'1 1.2 1018.8 25.6
2017-Jan-20 13:40S 24°45' E 077°16'1 0.3 1018.2 25.6
2017-Jan-20 11:40S 24°45' E 077°17'1 0.5 1017.5 25.7
2017-Jan-20 10:30S 24°44' E 077°17'2 1.4 1017.7 25.7
2017-Jan-20 08:40S 24°43' E 077°19'1 0.1 1018.6 25.7
2017-Jan-20 04:40S 24°43' E 077°20'1 0.5 1020.0 25.6
2017-Jan-20 02:30S 24°43' E 077°21'2 0.9 1019.9 25.6
2017-Jan-20 00:40S 24°44' E 077°22'1 0.1 1019.2 25.6
2017-Jan-19 17:40S 24°44' E 077°23'1 0.3 1020.2 25.6
2017-Jan-19 15:40S 24°44' E 077°23'1 0.7 1020.0 25.6
2017-Jan-19 14:30S 24°44' E 077°22'1 0.7 1019.9 25.6
2017-Jan-19 13:40S 24°44' E 077°23'1 0.7 1019.5 25.7
2017-Jan-19 12:30S 24°43' E 077°22'1 1.1 1019.2 25.7
2017-Jan-19 11:30S 24°43' E 077°23'0 0.0 1019.1 25.7
2017-Jan-19 10:40S 24°43' E 077°23'4 3.6 1019.3 25.7
2017-Jan-19 09:30S 24°41' E 077°28'0 0.0 1019.6 25.7
2017-Jan-19 05:40S 24°41' E 077°28'0 0.0 1021.3 25.6
2017-Jan-19 04:40S 24°41' E 077°28'1 0.5 1021.6 25.6
2017-Jan-19 02:40S 24°41' E 077°29'1 0.5 1022.0 25.5
2017-Jan-19 01:40S 24°41' E 077°29'0 0.0 1021.9 25.5
2017-Jan-19 00:30S 24°41' E 077°29'1 0.5 1021.8 25.5
2017-Jan-18 23:30S 24°41' E 077°30'1 0.7 1021.2 25.6
2017-Jan-18 22:40S 24°42' E 077°30'2 1.1 1021.1 25.6
2017-Jan-18 20:40S 24°41' E 077°32'0 0.0 1021.4 25.6
2017-Jan-18 17:40S 24°41' E 077°32'0 0.0 1022.5 25.7
2017-Jan-18 16:30S 24°41' E 077°32'1 0.3 1022.5 25.7
2017-Jan-18 14:40S 24°41' E 077°33'1 0.3 1021.7 25.7
2017-Jan-18 12:40S 24°41' E 077°34'1 0.6 1020.7 25.7
2017-Jan-18 11:40S 24°41' E 077°34'1 0.5 1020.5 25.7
2017-Jan-18 10:30S 24°41' E 077°34'3 3.6 1020.5 25.7
2017-Jan-18 09:40S 24°40' E 077°37'1 0.1 1020.8 25.7
2017-Jan-18 03:30S 24°40' E 077°37'2 1.9 1022.3 25.6
2017-Jan-18 02:40S 24°39' E 077°38'0 0.0 1022.4 25.6
2017-Jan-18 01:40S 24°39' E 077°38'1 0.5 1022.3 25.6
2017-Jan-18 00:30S 24°40' E 077°38'1 0.4 1021.9 25.6
2017-Jan-17 22:30S 24°40' E 077°39'3 1.1 1021.0 25.7
2017-Jan-17 19:30S 24°40' E 077°43'1 0.2 1021.7 25.7
2017-Jan-17 16:40S 24°40' E 077°43'1 0.6 1022.5 25.7
2017-Jan-17 14:30S 24°41' E 077°44'1 0.8 1021.9 25.7
2017-Jan-17 13:30S 24°40' E 077°44'1 0.7 1021.3 25.7
2017-Jan-17 12:40S 24°40' E 077°45'0 0.0 1020.5 25.7
2017-Jan-17 11:40S 24°40' E 077°45'5 2.1 1020.2 25.7
2017-Jan-17 09:30S 24°41' E 077°50'0 0.0 1020.6 25.7
2017-Jan-17 04:30S 24°41' E 077°50'1 0.8 1021.9 25.6
2017-Jan-17 03:30S 24°42' E 077°50'0 0.0 1021.7 25.6
2017-Jan-17 02:40S 24°42' E 077°50'0 0.0 1021.6 25.6
2017-Jan-17 01:30S 24°42' E 077°50'1 0.8 1021.5 25.6
2017-Jan-17 00:30S 24°43' E 077°51'2 1.1 1020.9 25.5
2017-Jan-16 22:40S 24°41' E 077°53'4 0.7 1020.0 25.6
2017-Jan-16 16:40S 24°40' E 077°57'2 2.2 1021.9 25.6
2017-Jan-16 15:40S 24°40' E 077°59'0 0.0 1021.6 25.6
2017-Jan-16 14:30S 24°40' E 077°59'2 0.9 1021.2 25.6
2017-Jan-16 12:40S 24°40' E 078°01'3 2.4 1020.2 25.7
2017-Jan-16 11:30S 24°39' E 078°04'7 0.7 1020.0 25.7
2017-Jan-16 01:40S 24°39' E 078°11'1 0.8 1023.0 25.2
2017-Jan-16 00:40S 24°40' E 078°12'1 0.5 1022.3 25.2
2017-Jan-15 23:30S 24°39' E 078°12'1 0.6 1021.8 25.2
2017-Jan-15 21:40S 24°39' E 078°13'4 0.7 1021.9 25.3
2017-Jan-15 16:40S 24°37' E 078°16'2 0.7 1023.3 25.3
2017-Jan-15 13:40S 24°35' E 078°18'1 0.9 1021.7 25.3
2017-Jan-15 12:30S 24°35' E 078°19'6 0.8 1020.7 25.4
2017-Jan-15 04:30S 24°34' E 078°26'1 1.0 1021.8 25.4
2017-Jan-15 03:40S 24°34' E 078°26'0 0.0 1021.9 25.3
2017-Jan-15 02:30S 24°34' E 078°26'0 0.0 1021.8 25.2
2017-Jan-15 01:40S 24°34' E 078°26'1 0.5 1021.6 25.2
2017-Jan-15 00:30S 24°34' E 078°27'1 0.4 1021.1 25.2
2017-Jan-14 21:40S 24°34' E 078°28'0 0.0 1019.8 25.3
2017-Jan-14 17:40S 24°34' E 078°28'0 0.0 1021.0 25.4
2017-Jan-14 16:40S 24°34' E 078°28'0 0.0 1020.7 25.4
2017-Jan-14 15:40S 24°34' E 078°28'1 1.3 1020.5 25.5
2017-Jan-14 14:40S 24°32' E 078°29'1 0.5 1019.8 25.5
2017-Jan-14 13:40S 24°32' E 078°28'2 1.6 1019.1 25.5
2017-Jan-14 12:40S 24°31' E 078°29'0 0.0 1018.2 25.6
2017-Jan-14 11:30S 24°31' E 078°29'1 1.0 1017.5 25.6
2017-Jan-14 10:40S 24°31' E 078°30'5 0.9 1017.4 25.6
2017-Jan-14 05:30S 24°28' E 078°34'1 0.3 1017.9 25.2
2017-Jan-14 01:40S 24°28' E 078°35'1 0.8 1017.2 25.0
2017-Jan-14 00:40S 24°27' E 078°36'2 0.5 1016.5 25.1
2017-Jan-13 21:40S 24°26' E 078°37'1 0.2 1014.7 25.2
2017-Jan-13 16:40S 24°25' E 078°38'1 0.6 1015.9 25.2
2017-Jan-13 14:40S 24°24' E 078°38'1 0.7 1015.0 25.3
2017-Jan-13 13:30S 24°23' E 078°38'1 1.4 1014.5 25.4
2017-Jan-13 12:40S 24°22' E 078°38'1 0.3 1013.8 25.5
2017-Jan-13 10:30S 24°22' E 078°38'6 0.7 1013.3 25.6
2017-Jan-13 01:40S 24°17' E 078°43'1 0.6 1015.6 25.2
2017-Jan-13 00:40S 24°17' E 078°43'3 1.1 1015.2 25.2
2017-Jan-12 21:30S 24°16' E 078°47'3 0.5 1014.5 25.2
2017-Jan-12 15:40S 24°16' E 078°50'0 0.0 1016.6 25.2
2017-Jan-12 14:40S 24°16' E 078°50'2 1.1 1016.2 25.3
2017-Jan-12 12:40S 24°16' E 078°52'0 0.0 1015.2 25.4
2017-Jan-12 11:40S 24°16' E 078°52'1 0.8 1014.7 25.4
2017-Jan-12 10:40S 24°15' E 078°53'1 0.5 1015.0 25.5
2017-Jan-12 08:40S 24°15' E 078°54'0 0.0 1016.1 25.4
2017-Jan-12 04:40S 24°15' E 078°54'1 0.5 1017.9 25.1
2017-Jan-12 03:40S 24°15' E 078°53'2 0.7 1018.2 25.1
2017-Jan-12 01:30S 24°14' E 078°55'1 1.0 1018.0 25.0
2017-Jan-12 00:40S 24°13' E 078°55'0 0.0 1017.7 25.1
2017-Jan-11 23:30S 24°13' E 078°55'2 1.1 1017.1 25.1
2017-Jan-11 21:40S 24°12' E 078°57'2 1.8 1017.1 25.1
2017-Jan-11 20:30S 24°10' E 078°58'1 0.3 1017.4 25.1
2017-Jan-11 16:40S 24°11' E 078°59'1 0.8 1019.0 25.1
2017-Jan-11 15:40S 24°10' E 079°00'1 0.5 1018.7 25.2
2017-Jan-11 13:40S 24°10' E 079°01'1 0.8 1017.7 25.2
2017-Jan-11 12:40S 24°10' E 079°02'2 1.6 1017.1 25.2
2017-Jan-11 11:40S 24°10' E 079°04'1 0.6 1016.9 25.2
2017-Jan-11 10:40S 24°10' E 079°04'3 2.7 1016.9 25.2
2017-Jan-11 09:40S 24°10' E 079°07'1 0.1 1017.2 25.2
2017-Jan-11 01:30S 24°10' E 079°07'1 1.0 1018.2 25.1
2017-Jan-11 00:40S 24°09' E 079°08'1 0.3 1017.8 25.1
2017-Jan-10 22:40S 24°08' E 079°08'   1017.2 25.1

Dump ship's entire track history